Time;durP1;ratioP1;P1;durP2;ratioP2;P2;SDS_P1;SDS_P2;PMS_P1;PMS_P2;Temp;Humidity;BMP_temperature;BMP_pressure;BME280_temperature;BME280_humidity;BME280_pressure;Samples;Min_cycle;Max_cycle;Signal;HPM_P1;HPM_P2
2023/10/20 00:02:27;;;;;;;39.40;19.50;;;;;;;17.09;57.74;96963.78;136005;1273;22535;-66
2023/10/20 00:05:30;;;;;;;37.10;18.50;;;;;;;17.27;57.19;96957.98;135932;1273;24356;-67
2023/10/20 00:08:32;;;;;;;31.70;17.20;;;;;;;17.24;57.06;96949.70;135995;1273;22541;-66
2023/10/20 00:11:36;;;;;;;31.50;16.30;;;;;;;17.20;57.34;96949.44;135955;1273;22547;-66
2023/10/20 00:14:38;;;;;;;34.20;17.60;;;;;;;17.05;57.53;96944.05;135958;1273;22932;-66
2023/10/20 00:17:41;;;;;;;;;;;;;;;17.00;57.44;96941.88;135906;1273;22616;-66
2023/10/20 00:20:43;;;;;;;34.10;19.00;;;;;;;16.95;57.83;96940.27;135925;1273;22547;-65
2023/10/20 00:23:46;;;;;;;35.40;18.40;;;;;;;17.04;57.63;96934.98;135941;1273;22527;-66
2023/10/20 00:26:49;;;;;;;33.70;16.70;;;;;;;17.01;57.76;96935.87;135912;1273;22558;-66
2023/10/20 00:29:51;;;;;;;31.20;16.10;;;;;;;16.99;57.59;96933.36;135932;1273;26857;-66
2023/10/20 00:32:54;;;;;;;;;;;;;;;17.10;57.47;96935.00;135944;1273;25321;-65
2023/10/20 00:35:56;;;;;;;33.60;17.10;;;;;;;17.03;57.69;96937.62;135913;1273;22550;-66
2023/10/20 00:38:58;;;;;;;31.00;16.30;;;;;;;17.07;57.82;96940.98;135918;1273;22993;-67
2023/10/20 00:42:01;;;;;;;35.50;17.30;;;;;;;17.12;57.94;96936.77;135934;1273;22532;-66
2023/10/20 00:45:04;;;;;;;36.10;18.00;;;;;;;17.26;57.71;96938.94;135916;1273;22528;-66
2023/10/20 00:48:06;;;;;;;31.80;16.00;;;;;;;17.33;57.51;96941.31;135958;1273;22542;-66
2023/10/20 00:51:08;;;;;;;32.90;16.40;;;;;;;17.40;57.28;96943.48;135847;1273;24387;-65
2023/10/20 00:54:13;;;;;;;33.70;16.70;;;;;;;17.42;57.13;96940.95;135823;1273;22535;-65
2023/10/20 00:57:16;;;;;;;31.10;15.80;;;;;;;17.41;57.04;96943.63;135895;1273;24040;-66
2023/10/20 01:00:20;;;;;;;31.80;15.90;;;;;;;17.48;57.00;96946.48;135965;1273;22540;-66
2023/10/20 01:03:23;;;;;;;43.90;22.10;;;;;;;17.38;57.56;96934.21;135920;1273;22881;-66
2023/10/20 01:06:27;;;;;;;32.30;16.10;;;;;;;17.47;57.20;96919.94;135964;1273;22526;-66
2023/10/20 01:09:29;;;;;;;;;;;;;;;17.42;57.16;96915.59;135979;1273;22505;-65
2023/10/20 01:12:32;;;;;;;34.80;17.60;;;;;;;17.31;57.47;96910.36;135914;1273;22520;-66
2023/10/20 01:15:34;;;;;;;32.80;17.50;;;;;;;17.20;57.49;96904.77;135938;1273;22526;-65
2023/10/20 01:18:36;;;;;;;34.90;16.40;;;;;;;17.42;56.78;96891.54;135613;1273;22517;-66
2023/10/20 01:21:39;;;;;;;32.90;15.80;;;;;;;17.11;57.37;96891.48;135916;1273;22531;-66
2023/10/20 01:24:41;;;;;;;33.00;15.80;;;;;;;17.23;57.22;96896.02;135950;1273;22533;-66
2023/10/20 01:27:44;;;;;;;31.10;16.00;;;;;;;17.54;56.41;96895.48;135939;1257;23065;-66
2023/10/20 01:30:46;;;;;;;35.30;17.60;;;;;;;17.52;56.70;96891.88;135938;1273;22542;-66
2023/10/20 01:33:48;;;;;;;35.10;18.10;;;;;;;17.40;57.13;96885.80;135909;1273;22534;-65
2023/10/20 01:36:51;;;;;;;36.50;18.90;;;;;;;17.40;57.09;96885.36;135905;1273;24606;-65
2023/10/20 01:39:53;;;;;;;35.10;17.70;;;;;;;17.22;57.41;96876.52;135978;1273;22645;-65
2023/10/20 01:42:56;;;;;;;33.30;17.00;;;;;;;17.21;57.56;96861.99;135979;1273;22520;-65
2023/10/20 01:45:58;;;;;;;;;;;;;;;17.28;57.34;96852.71;135922;1273;22535;-65
2023/10/20 01:49:00;;;;;;;31.70;15.50;;;;;;;17.35;57.18;96846.58;135934;1273;22538;-65
2023/10/20 01:52:03;;;;;;;30.50;16.10;;;;;;;17.34;57.02;96850.05;135937;1273;22786;-63
2023/10/20 01:55:05;;;;;;;31.40;16.00;;;;;;;17.39;56.98;96857.55;135961;1273;22533;-64
2023/10/20 01:58:08;;;;;;;;;;;;;;;17.41;56.82;96855.38;135972;1270;22517;-66
2023/10/20 02:01:10;;;;;;;36.00;18.10;;;;;;;17.38;57.01;96852.11;135920;1273;25252;-66
2023/10/20 02:04:13;;;;;;;34.90;17.10;;;;;;;17.38;57.15;96847.79;135999;1273;26073;-66
2023/10/20 02:07:15;;;;;;;34.70;17.80;;;;;;;17.51;56.66;96838.11;135899;1273;22552;-65
2023/10/20 02:10:17;;;;;;;32.10;16.10;;;;;;;17.31;57.36;96837.70;135816;1273;22523;-66
2023/10/20 02:13:20;;;;;;;33.30;16.00;;;;;;;17.41;56.92;96839.66;135939;1273;25415;-66
2023/10/20 02:16:22;;;;;;;32.00;15.80;;;;;;;17.55;56.57;96840.45;135968;1273;22550;-65
2023/10/20 02:19:25;;;;;;;36.60;18.30;;;;;;;17.52;56.88;96845.13;135929;1273;22545;-66
2023/10/20 02:22:28;;;;;;;34.10;16.90;;;;;;;17.59;56.89;96842.85;135918;1273;22530;-66
2023/10/20 02:25:31;;;;;;;35.20;18.50;;;;;;;17.61;56.77;96842.15;135925;1273;22556;-66
2023/10/20 02:28:33;;;;;;;34.40;18.20;;;;;;;17.65;56.71;96831.51;135961;1273;22765;-66
2023/10/20 02:31:36;;;;;;;34.00;17.80;;;;;;;17.51;56.82;96822.38;135926;1273;22547;-66
2023/10/20 02:34:38;;;;;;;33.90;17.50;;;;;;;17.58;56.50;96820.09;135992;1273;22521;-65
2023/10/20 02:37:40;;;;;;;34.50;19.30;;;;;;;17.49;56.56;96821.45;135932;1273;22546;-66
2023/10/20 02:40:43;;;;;;;34.80;17.00;;;;;;;17.57;56.37;96818.73;135919;1273;22562;-66
2023/10/20 02:43:45;;;;;;;33.40;16.60;;;;;;;17.63;56.21;96813.55;135929;1273;22547;-66
2023/10/20 02:46:47;;;;;;;34.50;18.00;;;;;;;17.45;56.59;96816.97;135917;1260;22636;-66
2023/10/20 02:49:50;;;;;;;39.40;19.20;;;;;;;17.27;57.16;96821.89;135943;1273;24205;-66
2023/10/20 02:52:52;;;;;;;35.10;18.00;;;;;;;17.31;57.05;96824.86;135935;1264;22534;-66
2023/10/20 02:55:56;;;;;;;36.20;18.20;;;;;;;17.42;56.97;96822.19;135844;1273;22522;-66
2023/10/20 02:58:58;;;;;;;34.80;17.70;;;;;;;17.44;56.99;96822.88;135930;1273;22542;-66
2023/10/20 03:02:01;;;;;;;;;;;;;;;17.29;57.42;96826.67;135912;1273;22521;-66
2023/10/20 03:05:06;;;;;;;34.60;18.20;;;;;;;17.23;57.68;96829.83;135894;1273;22577;-66
2023/10/20 03:08:09;;;;;;;37.20;18.10;;;;;;;17.37;57.49;96828.29;135897;1273;22517;-67
2023/10/20 03:11:12;;;;;;;34.00;18.40;;;;;;;17.63;56.91;96828.41;135942;1273;22548;-65
2023/10/20 03:14:15;;;;;;;35.50;18.00;;;;;;;17.66;56.91;96839.91;135959;1273;22510;-65
2023/10/20 03:17:17;;;;;;;44.80;21.30;;;;;;;17.58;57.40;96846.11;135903;1273;22566;-66
2023/10/20 03:20:24;;;;;;;37.20;18.20;;;;;;;17.79;56.87;96836.55;135906;1273;22546;-65
2023/10/20 03:23:27;;;;;;;35.30;17.80;;;;;;;17.80;57.03;96822.13;135946;1273;22660;-66
2023/10/20 03:26:29;;;;;;;38.00;17.80;;;;;;;17.93;56.64;96820.64;135945;1273;22530;-64
2023/10/20 03:29:32;;;;;;;33.50;17.30;;;;;;;17.74;56.98;96818.55;135930;1273;22524;-65
2023/10/20 03:32:35;;;;;;;34.70;17.80;;;;;;;17.71;56.87;96818.97;135927;1251;22530;-64
2023/10/20 03:35:37;;;;;;;36.60;19.30;;;;;;;17.80;56.96;96812.70;135933;1273;22554;-65
2023/10/20 03:38:39;;;;;;;36.30;18.20;;;;;;;17.78;57.06;96796.81;135920;1273;22545;-64
2023/10/20 03:41:42;;;;;;;37.20;18.60;;;;;;;17.97;56.45;96781.55;135945;1273;22528;-65
2023/10/20 03:44:47;;;;;;;36.40;19.10;;;;;;;17.95;56.81;96777.00;135954;1273;22600;-66
2023/10/20 03:47:50;;;;;;;35.00;18.10;;;;;;;17.86;57.03;96769.70;135942;1273;22514;-65
2023/10/20 03:50:53;;;;;;;37.90;18.40;;;;;;;17.89;56.87;96774.54;135924;1264;24386;-66
2023/10/20 03:53:56;;;;;;;35.70;18.10;;;;;;;17.63;57.46;96777.79;135940;1273;25307;-66
2023/10/20 03:56:59;;;;;;;39.90;21.20;;;;;;;17.74;57.24;96776.14;135898;1273;22538;-65
2023/10/20 04:00:15;;;;;;;38.60;19.70;;;;;;;17.77;57.22;96776.13;135948;1273;22642;-66
2023/10/20 04:03:17;;;;;;;37.00;20.30;;;;;;;17.76;57.24;96774.36;135941;1273;25503;-66
2023/10/20 04:06:20;;;;;;;37.00;19.00;;;;;;;17.92;56.80;96775.39;135925;1273;22528;-65
2023/10/20 04:09:23;;;;;;;35.60;18.00;;;;;;;17.64;57.48;96786.68;135921;1273;22536;-66
2023/10/20 04:12:27;;;;;;;34.20;18.80;;;;;;;17.66;57.54;96790.70;135916;1273;22542;-66
2023/10/20 04:15:32;;;;;;;36.40;18.90;;;;;;;17.73;57.69;96798.39;135915;1273;25418;-63
2023/10/20 04:18:35;;;;;;;36.60;18.80;;;;;;;17.80;57.86;96800.51;135904;1273;22545;-65
2023/10/20 04:21:38;;;;;;;;;;;;;;;18.03;57.22;96787.85;135947;1273;22509;-66
2023/10/20 04:24:44;;;;;;;35.00;18.10;;;;;;;18.06;57.05;96778.82;135891;1273;26554;-65
2023/10/20 04:27:50;;;;;;;36.50;18.50;;;;;;;18.04;57.09;96769.66;135899;1273;25480;-64
2023/10/20 04:51:17;;;;;;;34.50;17.50;;;;;;;17.90;57.53;96781.20;135852;1273;22660;-65
2023/10/20 04:54:22;;;;;;;35.90;17.70;;;;;;;18.03;57.56;96782.64;135942;1273;22543;-66
2023/10/20 04:57:50;;;;;;;41.30;18.50;;;;;;;18.26;57.17;96772.24;135952;1273;24439;-66
2023/10/20 05:01:03;;;;;;;40.50;19.40;;;;;;;18.40;56.74;96774.77;135941;1273;22528;-65
2023/10/20 05:04:13;;;;;;;39.00;20.50;;;;;;;18.37;56.79;96770.37;135947;1273;22520;-65
2023/10/20 05:07:17;;;;;;;40.50;21.00;;;;;;;18.28;57.10;96764.75;135909;1273;22531;-66
2023/10/20 05:10:20;;;;;;;42.10;20.30;;;;;;;18.19;57.30;96773.62;135887;1273;22531;-63
2023/10/20 05:13:23;;;;;;;40.40;20.60;;;;;;;18.30;57.12;96778.98;135892;1273;22546;-65
2023/10/20 05:16:28;;;;;;;40.60;19.90;;;;;;;18.26;57.21;96790.08;135932;1273;22530;-66
2023/10/20 05:19:32;;;;;;;34.00;17.30;;;;;;;18.44;56.70;96791.20;135868;1273;22543;-65
2023/10/20 05:22:35;;;;;;;36.20;18.10;;;;;;;18.48;56.44;96788.66;135881;1273;25529;-66
2023/10/20 05:25:38;;;;;;;36.00;17.50;;;;;;;18.48;56.49;96782.41;135984;1273;24347;-65
2023/10/20 05:28:40;;;;;;;36.50;17.50;;;;;;;18.42;56.97;96795.88;135911;1273;22675;-66
2023/10/20 05:31:43;;;;;;;35.50;17.80;;;;;;;18.47;56.77;96800.01;135903;1273;24359;-66
2023/10/20 05:34:46;;;;;;;35.20;17.50;;;;;;;18.27;57.09;96801.35;135932;1273;22527;-66
2023/10/20 05:37:48;;;;;;;35.20;17.40;;;;;;;18.17;57.43;96799.92;135925;1273;22531;-65
2023/10/20 05:40:51;;;;;;;37.90;18.40;;;;;;;18.07;57.87;96786.16;135912;1273;22665;-66
2023/10/20 05:43:54;;;;;;;40.70;19.10;;;;;;;18.04;57.76;96784.11;135950;1273;22530;-66
2023/10/20 05:46:57;;;;;;;36.40;18.40;;;;;;;18.18;57.37;96780.14;135962;1273;22621;-66
2023/10/20 05:50:00;;;;;;;37.20;18.00;;;;;;;18.26;57.32;96779.80;135941;1273;22530;-63
2023/10/20 05:53:03;;;;;;;38.30;18.60;;;;;;;18.35;57.25;96776.04;135946;1273;22534;-66
2023/10/20 05:56:06;;;;;;;;;;;;;;;18.30;57.29;96776.72;135980;1273;24244;-66
2023/10/20 05:59:09;;;;;;;35.00;17.80;;;;;;;18.38;57.29;96784.95;135930;1273;26701;-63
2023/10/20 06:02:11;;;;;;;33.30;17.00;;;;;;;18.27;57.65;96779.12;135942;1273;22520;-66
2023/10/20 06:05:14;;;;;;;38.30;17.50;;;;;;;18.24;57.99;96771.05;135931;1273;24570;-66
2023/10/20 06:08:17;;;;;;;33.70;16.50;;;;;;;18.29;57.87;96781.66;135959;1273;22551;-64
2023/10/20 06:11:19;;;;;;;;;;;;;;;17.99;58.89;96788.69;135959;1273;23907;-65
2023/10/20 06:14:23;;;;;;;42.50;26.00;;;;;;;18.07;58.90;96791.01;135921;1273;22536;-65
2023/10/20 06:17:26;;;;;;;34.90;18.30;;;;;;;18.38;58.25;96790.34;135983;1273;25519;-65
2023/10/20 06:20:28;;;;;;;34.40;17.20;;;;;;;18.76;57.50;96786.55;135928;1273;22542;-65
2023/10/20 06:23:31;;;;;;;;;;;;;;;19.01;57.13;96786.71;135913;1273;25449;-66
2023/10/20 06:26:33;;;;;;;32.70;17.00;;;;;;;18.95;57.60;96788.94;135935;1273;22531;-65
2023/10/20 06:29:46;;;;;;;;;;;;;;;18.91;57.57;96785.66;136014;1273;22514;-65
2023/10/20 06:32:56;;;;;;;37.10;17.70;;;;;;;19.18;57.02;96786.27;136030;1273;22652;-64
2023/10/20 06:36:04;;;;;;;35.00;17.80;;;;;;;19.31;56.53;96787.46;136037;1273;22562;-65
2023/10/20 06:39:07;;;;;;;37.20;18.40;;;;;;;19.19;56.61;96780.55;135974;1254;22643;-65
2023/10/20 06:42:10;;;;;;;35.40;16.30;;;;;;;19.00;57.02;96778.00;136027;1273;22547;-65
2023/10/20 06:45:12;;;;;;;;;;;;;;;19.12;57.07;96776.14;136047;1255;22516;-65
2023/10/20 06:48:16;;;;;;;32.30;15.80;;;;;;;19.05;57.30;96765.77;135961;1273;22593;-65
2023/10/20 06:51:18;;;;;;;33.30;16.50;;;;;;;18.94;57.56;96768.41;136008;1273;22569;-66
2023/10/20 06:54:21;;;;;;;33.20;15.90;;;;;;;19.15;57.24;96775.86;136036;1273;22538;-65
2023/10/20 06:57:24;;;;;;;39.80;18.10;;;;;;;19.18;57.26;96779.64;136003;1273;22635;-66
2023/10/20 07:00:28;;;;;;;38.80;16.80;;;;;;;19.30;57.24;96766.02;136058;1273;22519;-65
2023/10/20 07:03:32;;;;;;;35.10;17.40;;;;;;;19.40;57.02;96755.65;136015;1273;22535;-65
2023/10/20 07:06:34;;;;;;;36.10;17.80;;;;;;;19.39;57.20;96757.59;136029;1273;22776;-65
2023/10/20 07:09:37;;;;;;;33.50;16.40;;;;;;;19.50;56.84;96760.41;135967;1273;22531;-66
2023/10/20 07:12:39;;;;;;;31.00;15.70;;;;;;;19.44;56.99;96762.93;135944;1273;22535;-66
2023/10/20 07:15:42;;;;;;;32.00;16.00;;;;;;;19.54;56.75;96760.38;135970;1273;25309;-66
2023/10/20 07:18:44;;;;;;;31.10;15.10;;;;;;;19.55;56.80;96761.12;135927;1273;22546;-66
2023/10/20 07:21:48;;;;;;;;;;;;;;;19.68;56.42;96746.50;135938;1254;22733;-65
2023/10/20 07:24:50;;;;;;;33.50;15.90;;;;;;;19.76;56.23;96733.50;136004;1273;22569;-64
2023/10/20 07:27:53;;;;;;;32.30;16.30;;;;;;;19.71;56.22;96720.30;135979;1273;22526;-64
2023/10/20 07:30:56;;;;;;;32.90;15.70;;;;;;;19.73;56.13;96715.54;136038;1273;23876;-65
2023/10/20 07:33:58;;;;;;;;;;;;;;;19.56;56.47;96715.18;135978;1273;22534;-65
2023/10/20 07:37:01;;;;;;;29.10;14.00;;;;;;;19.51;56.64;96723.72;135998;1273;22531;-63
2023/10/20 07:40:04;;;;;;;30.50;14.30;;;;;;;19.56;56.73;96722.91;136016;1273;22620;-65
2023/10/20 07:43:07;;;;;;;30.90;14.00;;;;;;;19.60;56.49;96721.04;135962;1273;22517;-66
2023/10/20 07:46:09;;;;;;;33.60;13.60;;;;;;;19.44;56.97;96731.03;136011;1273;22531;-66
2023/10/20 07:49:12;;;;;;;28.90;13.60;;;;;;;19.45;57.13;96728.50;136060;1273;25510;-66
2023/10/20 07:52:15;;;;;;;;;;;;;;;19.47;57.16;96720.23;136004;1254;22507;-66
2023/10/20 07:55:17;;;;;;;30.80;15.00;;;;;;;19.58;56.96;96723.27;136000;1273;22543;-66
2023/10/20 07:58:19;;;;;;;29.90;13.70;;;;;;;19.60;57.00;96726.10;136058;1271;22633;-66
2023/10/20 08:01:22;;;;;;;34.20;15.40;;;;;;;19.50;57.10;96729.92;135998;1273;22527;-66
2023/10/20 08:04:26;;;;;;;;;;;;;;;19.66;56.67;96735.48;136060;1273;25382;-66
2023/10/20 08:07:28;;;;;;;29.60;13.10;;;;;;;19.86;56.48;96735.66;135984;1273;22527;-66
2023/10/20 08:10:31;;;;;;;;;;;;;;;19.89;56.65;96731.95;135999;1273;22505;-62
2023/10/20 08:13:34;;;;;;;27.80;12.90;;;;;;;20.04;56.61;96716.68;135977;1273;22575;-64
2023/10/20 08:16:36;;;;;;;37.70;18.10;;;;;;;20.12;56.36;96706.89;135982;1273;22556;-66
2023/10/20 08:19:39;;;;;;;;;;;;;;;20.12;56.58;96709.67;136019;1273;22517;-66
2023/10/20 08:22:42;;;;;;;35.60;18.10;;;;;;;20.23;56.32;96708.71;135996;1273;22540;-66
2023/10/20 08:25:45;;;;;;;43.00;22.10;;;;;;;20.33;56.36;96708.10;136005;1273;24075;-66
2023/10/20 08:28:48;;;;;;;;;;;;;;;20.30;56.35;96706.46;135966;1257;22756;-65
2023/10/20 08:31:51;;;;;;;37.90;17.90;;;;;;;20.22;57.04;96701.84;135964;1273;25589;-65
2023/10/20 08:34:53;;;;;;;28.70;12.90;;;;;;;20.41;57.30;96694.61;135997;1273;22534;-65
2023/10/20 08:37:56;;;;;;;25.70;12.20;;;;;;;20.67;57.02;96683.70;136004;1273;22669;-66
2023/10/20 08:40:58;;;;;;;27.40;12.20;;;;;;;20.93;56.42;96680.54;136024;1273;22646;-65
2023/10/20 08:44:01;;;;;;;27.90;12.70;;;;;;;21.11;56.39;96676.89;135993;1273;22569;-65
2023/10/20 08:47:03;;;;;;;29.70;13.10;;;;;;;21.33;55.60;96674.67;135960;1273;25255;-65
2023/10/20 08:50:06;;;;;;;;;;;;;;;21.51;55.71;96679.77;135991;1273;22821;-67
2023/10/20 08:53:09;;;;;;;32.00;15.70;;;;;;;21.80;55.18;96682.30;136018;1273;22527;-66
2023/10/20 08:56:12;;;;;;;;;;;;;;;21.92;55.38;96688.81;135981;1273;22610;-66
2023/10/20 08:59:14;;;;;;;28.40;13.50;;;;;;;22.21;55.36;96696.03;135940;1273;22570;-65
2023/10/20 09:02:17;;;;;;;;;;;;;;;22.45;54.58;96687.11;135973;1273;22511;-66
2023/10/20 09:05:19;;;;;;;25.30;12.10;;;;;;;22.48;54.35;96678.08;135989;1273;22576;-65
2023/10/20 09:08:22;;;;;;;;;;;;;;;22.41;54.21;96667.90;135988;1254;22511;-65
2023/10/20 09:11:30;;;;;;;29.30;13.30;;;;;;;22.56;53.96;96669.66;135974;1270;22540;-66
2023/10/20 09:14:32;;;;;;;26.80;13.20;;;;;;;22.58;54.30;96679.84;135982;1273;22523;-66
2023/10/20 09:17:35;;;;;;;;;;;;;;;22.73;53.65;96668.77;136001;1273;22518;-65
2023/10/20 09:20:39;;;;;;;27.30;12.30;;;;;;;22.64;53.90;96657.83;135969;1273;25487;-65
2023/10/20 09:23:41;;;;;;;28.50;12.10;;;;;;;22.62;54.19;96651.14;136005;1273;22523;-65
2023/10/20 09:26:44;;;;;;;;;;;;;;;22.75;54.28;96636.97;136021;1273;24017;-65
2023/10/20 09:29:47;;;;;;;30.60;13.80;;;;;;;22.92;53.96;96628.98;136020;1273;24466;-65
2023/10/20 09:32:49;;;;;;;;;;;;;;;22.57;54.71;96627.32;136079;1273;22509;-65
2023/10/20 09:35:52;;;;;;;29.30;14.60;;;;;;;22.65;54.25;96628.30;136009;1272;22530;-65
2023/10/20 09:38:55;;;;;;;30.20;13.20;;;;;;;22.72;54.14;96626.60;136067;1273;22534;-64
2023/10/20 09:41:57;;;;;;;;;;;;;;;22.71;53.97;96618.39;136089;1273;22512;-64
2023/10/20 09:44:59;;;;;;;26.90;12.20;;;;;;;22.57;53.83;96611.09;136034;1273;22543;-65
2023/10/20 09:48:02;;;;;;;;;;;;;;;22.38;54.12;96616.06;136074;1273;22516;-64
2023/10/20 09:51:05;;;;;;;26.10;12.50;;;;;;;22.47;54.82;96613.66;135985;1273;22535;-64
2023/10/20 09:54:08;;;;;;;27.90;12.20;;;;;;;22.66;54.83;96602.85;136068;1273;24396;-62
2023/10/20 09:57:12;;;;;;;;;;;;;;;22.78;54.46;96605.06;136062;1272;22523;-65
2023/10/20 10:00:17;;;;;;;28.80;13.60;;;;;;;22.82;54.18;96594.95;136028;1273;22639;-65
2023/10/20 10:03:19;;;;;;;28.00;14.60;;;;;;;22.78;53.78;96597.52;136006;1273;22541;-65
2023/10/20 10:06:23;;;;;;;27.60;13.20;;;;;;;22.86;53.72;96590.16;136017;1273;22569;-65
2023/10/20 10:09:27;;;;;;;31.70;13.20;;;;;;;22.90;53.56;96585.02;136000;1273;22543;-65
2023/10/20 10:12:30;;;;;;;27.40;12.40;;;;;;;23.18;53.55;96588.70;136056;1273;22554;-65
2023/10/20 10:15:32;;;;;;;;;;;;;;;23.20;53.65;96591.30;136021;1273;22507;-65
2023/10/20 10:18:37;;;;;;;27.20;12.30;;;;;;;22.92;54.54;96591.52;136060;1273;22547;-66
2023/10/20 10:21:40;;;;;;;30.60;13.20;;;;;;;22.83;53.30;96586.38;136006;1273;22552;-65
2023/10/20 10:24:43;;;;;;;30.40;13.50;;;;;;;22.81;53.17;96586.48;135954;1273;22659;-65
2023/10/20 10:27:45;;;;;;;27.20;13.90;;;;;;;22.70;53.95;96593.63;135992;1273;22571;-65
2023/10/20 10:30:50;;;;;;;;;;;;;;;22.37;54.84;96592.91;135947;1273;22511;-63
2023/10/20 10:33:52;;;;;;;29.70;13.50;;;;;;;22.38;54.68;96589.37;135964;1273;24371;-66
2023/10/20 10:36:57;;;;;;;;;;;;;;;22.32;54.86;96594.11;136020;1273;22516;-65
2023/10/20 10:40:00;;;;;;;27.20;13.00;;;;;;;22.14;55.47;96591.62;135994;1273;22556;-65
2023/10/20 10:43:02;;;;;;;;;;;;;;;22.26;55.50;96593.39;136015;1273;22508;-65
2023/10/20 10:46:05;;;;;;;27.60;13.10;;;;;;;22.48;54.88;96582.75;136030;1273;22648;-65
2023/10/20 10:49:09;;;;;;;31.40;14.20;;;;;;;22.63;54.82;96577.35;136058;1273;22531;-65
2023/10/20 10:52:12;;;;;;;28.30;14.20;;;;;;;22.52;54.88;96566.19;135997;1273;22534;-65
2023/10/20 10:55:14;;;;;;;30.60;14.90;;;;;;;22.24;55.09;96558.56;136008;1257;23066;-64
2023/10/20 10:58:17;;;;;;;29.30;14.20;;;;;;;22.10;55.51;96567.43;135969;1253;22538;-65
2023/10/20 11:01:19;;;;;;;32.00;14.20;;;;;;;22.05;55.98;96559.61;135939;1273;22514;-64
2023/10/20 11:04:22;;;;;;;28.30;13.70;;;;;;;21.97;56.27;96556.31;136061;1273;25468;-66
2023/10/20 11:07:24;;;;;;;30.10;16.70;;;;;;;21.98;56.38;96560.83;135968;1270;22543;-66
2023/10/20 11:10:28;;;;;;;;;;;;;;;22.01;55.83;96563.45;136067;1273;25271;-65
2023/10/20 11:13:31;;;;;;;28.90;15.20;;;;;;;22.09;55.46;96567.89;136047;1273;22538;-65
2023/10/20 11:16:33;;;;;;;28.80;14.90;;;;;;;21.97;55.87;96577.83;136025;1273;22546;-65
2023/10/20 11:19:36;;;;;;;;;;;;;;;22.06;55.94;96585.95;136014;1273;22623;-65
2023/10/20 11:22:38;;;;;;;29.10;14.30;;;;;;;22.15;55.61;96585.00;135985;1273;22530;-65
2023/10/20 11:25:42;;;;;;;29.70;13.40;;;;;;;22.22;55.32;96585.25;135997;1273;22530;-65
2023/10/20 11:28:45;;;;;;;30.50;13.10;;;;;;;22.09;55.49;96590.56;135990;1256;22545;-65
2023/10/20 11:31:47;;;;;;;27.70;14.10;;;;;;;21.95;55.85;96592.63;135978;1273;22534;-66
2023/10/20 11:34:50;;;;;;;;;;;;;;;22.00;55.97;96601.95;136017;1273;22512;-65
2023/10/20 11:37:53;;;;;;;32.50;15.80;;;;;;;22.12;55.82;96601.03;136022;1273;22645;-65
2023/10/20 11:40:55;;;;;;;;;;;;;;;22.14;55.69;96606.23;136011;1254;22771;-64
2023/10/20 11:43:58;;;;;;;32.60;15.70;;;;;;;22.19;55.39;96608.70;136033;1273;22630;-66
2023/10/20 11:47:00;;;;;;;31.90;14.50;;;;;;;22.21;55.23;96609.45;135963;1254;22536;-65
2023/10/20 11:50:04;;;;;;;;;;;;;;;22.12;55.21;96600.71;136002;1273;22518;-66
2023/10/20 11:53:06;;;;;;;30.00;14.70;;;;;;;22.02;55.46;96607.52;135998;1273;22520;-66
2023/10/20 11:56:10;;;;;;;28.60;14.80;;;;;;;22.08;55.41;96599.52;135982;1253;22557;-65
2023/10/20 11:59:13;;;;;;;31.80;15.50;;;;;;;22.09;55.53;96591.52;135986;1273;24362;-63
2023/10/20 12:02:15;;;;;;;31.90;16.30;;;;;;;22.10;55.72;96584.14;136012;1273;22549;-65
2023/10/20 12:05:18;;;;;;;31.70;16.50;;;;;;;22.15;55.50;96587.05;136016;1257;22551;-65
2023/10/20 12:08:20;;;;;;;;;;;;;;;22.18;55.83;96585.39;136009;1273;22604;-65
2023/10/20 12:11:23;;;;;;;32.00;16.20;;;;;;;22.22;55.85;96575.35;135923;1273;25287;-63
2023/10/20 12:14:26;;;;;;;;;;;;;;;22.32;55.69;96578.24;136026;1273;22507;-65
2023/10/20 12:17:29;;;;;;;31.80;15.40;;;;;;;22.39;55.70;96568.73;136026;1273;22543;-65
2023/10/20 12:20:31;;;;;;;;;;;;;;;22.33;56.07;96558.39;136011;1273;22652;-66
2023/10/20 12:23:33;;;;;;;28.50;14.90;;;;;;;22.26;56.39;96557.98;135994;1273;25401;-66
2023/10/20 12:26:37;;;;;;;29.90;16.40;;;;;;;22.48;55.84;96559.59;135932;1273;22530;-66
2023/10/20 12:29:39;;;;;;;32.90;16.30;;;;;;;22.56;55.52;96562.95;135981;1273;22517;-66
2023/10/20 12:32:43;;;;;;;;;;;;;;;22.44;55.89;96554.91;135999;1272;22507;-65
2023/10/20 12:35:45;;;;;;;34.10;17.80;;;;;;;22.39;55.93;96550.66;136005;1273;23883;-65
2023/10/20 12:38:48;;;;;;;32.10;17.70;;;;;;;22.36;56.21;96541.66;135989;1273;22542;-63
2023/10/20 12:41:51;;;;;;;;;;;;;;;22.50;56.22;96537.56;136038;1273;22629;-65
2023/10/20 12:44:53;;;;;;;32.60;17.20;;;;;;;22.58;56.38;96534.52;136020;1273;22534;-63
2023/10/20 12:47:55;;;;;;;;;;;;;;;22.67;56.29;96527.77;136015;1273;22517;-63
2023/10/20 12:50:58;;;;;;;31.60;17.10;;;;;;;22.64;56.37;96521.86;136026;1273;23318;-66
2023/10/20 12:54:01;;;;;;;;;;;;;;;22.61;56.31;96521.77;135995;1273;22504;-65
2023/10/20 12:57:03;;;;;;;33.10;17.70;;;;;;;22.56;56.36;96526.86;135953;1273;22527;-61
2023/10/20 13:00:06;;;;;;;;;;;;;;;22.47;56.52;96528.48;136011;1273;22511;-65
2023/10/20 13:03:08;;;;;;;;;;;;;;;22.36;56.59;96526.40;136006;1273;22515;-66
2023/10/20 13:06:11;;;;;;;;;;;;;;;22.10;57.50;96522.92;136025;1273;22506;-66
2023/10/20 13:09:14;;;;;;;34.70;20.80;;;;;;;21.99;57.44;96521.15;135946;1273;22538;-66
2023/10/20 13:12:16;;;;;;;36.90;19.80;;;;;;;21.90;57.80;96522.49;135991;1273;22530;-65
2023/10/20 13:15:19;;;;;;;;;;;;;;;21.74;58.40;96522.73;136009;1273;22531;-65
2023/10/20 13:18:22;;;;;;;37.40;19.00;;;;;;;21.75;58.68;96517.71;135773;1253;280901;-66
2023/10/20 13:21:26;;;;;;;;;;;;;;;21.84;58.23;96518.31;135991;1273;22516;-65
2023/10/20 13:24:28;;;;;;;33.80;18.60;;;;;;;21.90;58.17;96523.25;136038;1273;24231;-64
2023/10/20 13:27:32;;;;;;;;;;;;;;;22.14;57.39;96521.59;136016;1273;22513;-65
2023/10/20 13:30:34;;;;;;;38.80;19.90;;;;;;;22.04;57.95;96512.35;135983;1273;22523;-66
2023/10/20 13:33:37;;;;;;;;;;;;;;;21.90;58.32;96507.02;135998;1273;22527;-65
2023/10/20 13:36:39;;;;;;;38.10;19.70;;;;;;;21.82;58.70;96508.60;136041;1273;22548;-65
2023/10/20 13:39:42;;;;;;;35.30;19.80;;;;;;;21.67;59.34;96507.41;135989;1273;22533;-65
2023/10/20 13:42:44;;;;;;;;;;;;;;;21.75;58.87;96505.31;135986;1273;22572;-64
2023/10/20 13:45:48;;;;;;;41.20;22.70;;;;;;;21.79;58.84;96501.54;135946;1273;26668;-66
2023/10/20 13:48:50;;;;;;;38.30;22.50;;;;;;;21.90;58.55;96496.41;136021;1273;22553;-66
2023/10/20 13:51:52;;;;;;;;;;;;;;;21.95;58.62;96496.44;135970;1251;22491;-66
2023/10/20 13:54:55;;;;;;;40.20;23.00;;;;;;;21.98;58.51;96492.95;136025;1273;22636;-66
2023/10/20 13:57:58;;;;;;;42.90;24.70;;;;;;;21.93;58.82;96490.47;135943;1273;22531;-66
2023/10/20 14:01:02;;;;;;;39.80;22.70;;;;;;;22.04;58.35;96491.95;135982;1257;22555;-65
2023/10/20 14:04:07;;;;;;;39.00;22.50;;;;;;;21.98;58.65;96495.84;135976;1273;24480;-64
2023/10/20 14:07:09;;;;;;;47.40;26.00;;;;;;;21.93;58.69;96498.10;136019;1273;22636;-65
2023/10/20 14:10:12;;;;;;;;;;;;;;;21.91;58.80;96500.75;136001;1258;24209;-66
2023/10/20 14:13:14;;;;;;;38.90;21.50;;;;;;;21.92;59.06;96498.66;136004;1273;22546;-62
2023/10/20 14:16:17;;;;;;;;;;;;;;;21.91;59.01;96498.38;136054;1273;22502;-65
2023/10/20 14:19:19;;;;;;;46.60;27.20;;;;;;;21.95;58.91;96498.53;135997;1273;22671;-64
2023/10/20 14:22:22;;;;;;;42.00;23.30;;;;;;;21.98;59.00;96499.98;136012;1273;25619;-64
2023/10/20 14:25:24;;;;;;;;;;;;;;;21.86;59.53;96500.60;136036;1273;22508;-64
2023/10/20 14:28:31;;;;;;;39.30;22.10;;;;;;;21.94;59.20;96498.98;135989;1273;22531;-66
2023/10/20 14:31:33;;;;;;;53.00;28.80;;;;;;;21.95;59.24;96498.41;135978;1273;22533;-65
2023/10/20 14:34:36;;;;;;;;;;;;;;;22.13;58.57;96497.17;136063;1273;24034;-62